sensor_id;sensor_type;location;lat;lon;timestamp;P1;durP1;ratioP1;P2;durP2;ratioP2
62941;SDS011;49042;47.318;19.874;2023-05-06T00:00:29;12.73;;;6.80;;
62941;SDS011;49042;47.318;19.874;2023-05-06T00:03:31;10.30;;;6.57;;
62941;SDS011;49042;47.318;19.874;2023-05-06T00:06:34;10.23;;;6.82;;
62941;SDS011;49042;47.318;19.874;2023-05-06T00:09:37;9.55;;;6.45;;
62941;SDS011;49042;47.318;19.874;2023-05-06T00:12:39;10.77;;;6.93;;
62941;SDS011;49042;47.318;19.874;2023-05-06T00:15:41;15.25;;;7.12;;
62941;SDS011;49042;47.318;19.874;2023-05-06T00:18:45;10.05;;;7.28;;
62941;SDS011;49042;47.318;19.874;2023-05-06T00:21:46;10.77;;;6.87;;
62941;SDS011;49042;47.318;19.874;2023-05-06T00:24:48;8.15;;;6.55;;
62941;SDS011;49042;47.318;19.874;2023-05-06T00:27:51;16.35;;;7.10;;
62941;SDS011;49042;47.318;19.874;2023-05-06T00:30:53;10.85;;;7.28;;
62941;SDS011;49042;47.318;19.874;2023-05-06T00:33:55;14.87;;;8.52;;
62941;SDS011;49042;47.318;19.874;2023-05-06T00:36:57;11.57;;;7.40;;
62941;SDS011;49042;47.318;19.874;2023-05-06T00:39:58;14.40;;;8.00;;
62941;SDS011;49042;47.318;19.874;2023-05-06T00:43:01;12.43;;;7.78;;
62941;SDS011;49042;47.318;19.874;2023-05-06T00:46:03;14.68;;;8.50;;
62941;SDS011;49042;47.318;19.874;2023-05-06T00:49:05;11.25;;;7.97;;
62941;SDS011;49042;47.318;19.874;2023-05-06T00:52:07;16.27;;;8.07;;
62941;SDS011;49042;47.318;19.874;2023-05-06T00:55:09;11.38;;;7.97;;
62941;SDS011;49042;47.318;19.874;2023-05-06T00:58:12;13.43;;;7.95;;
62941;SDS011;49042;47.318;19.874;2023-05-06T01:01:14;12.13;;;7.60;;
62941;SDS011;49042;47.318;19.874;2023-05-06T01:04:18;13.98;;;7.97;;
62941;SDS011;49042;47.318;19.874;2023-05-06T01:10:57;13.88;;;8.13;;
62941;SDS011;49042;47.318;19.874;2023-05-06T01:15:12;12.45;;;7.78;;
62941;SDS011;49042;47.318;19.874;2023-05-06T01:17:56;14.23;;;8.48;;
62941;SDS011;49042;47.318;19.874;2023-05-06T01:21:01;16.55;;;7.82;;
62941;SDS011;49042;47.318;19.874;2023-05-06T01:24:05;12.15;;;7.45;;
62941;SDS011;49042;47.318;19.874;2023-05-06T01:27:08;11.75;;;8.45;;
62941;SDS011;49042;47.318;19.874;2023-05-06T01:30:11;13.20;;;8.05;;
62941;SDS011;49042;47.318;19.874;2023-05-06T01:36:44;11.55;;;7.75;;
62941;SDS011;49042;47.318;19.874;2023-05-06T01:39:58;11.07;;;6.95;;
62941;SDS011;49042;47.318;19.874;2023-05-06T01:43:01;17.52;;;7.65;;
62941;SDS011;49042;47.318;19.874;2023-05-06T01:46:07;12.50;;;7.55;;
62941;SDS011;49042;47.318;19.874;2023-05-06T01:49:15;12.90;;;7.40;;
62941;SDS011;49042;47.318;19.874;2023-05-06T01:52:19;11.75;;;7.97;;
62941;SDS011;49042;47.318;19.874;2023-05-06T01:55:22;11.02;;;7.22;;
62941;SDS011;49042;47.318;19.874;2023-05-06T01:58:23;10.95;;;7.28;;
62941;SDS011;49042;47.318;19.874;2023-05-06T02:01:25;11.32;;;7.15;;
62941;SDS011;49042;47.318;19.874;2023-05-06T02:04:27;9.50;;;7.15;;
62941;SDS011;49042;47.318;19.874;2023-05-06T02:07:29;13.32;;;7.47;;
62941;SDS011;49042;47.318;19.874;2023-05-06T02:10:31;10.65;;;7.43;;
62941;SDS011;49042;47.318;19.874;2023-05-06T02:13:32;9.70;;;7.07;;
62941;SDS011;49042;47.318;19.874;2023-05-06T02:16:34;13.85;;;7.43;;
62941;SDS011;49042;47.318;19.874;2023-05-06T02:19:38;15.35;;;8.20;;
62941;SDS011;49042;47.318;19.874;2023-05-06T02:22:41;19.25;;;9.15;;
62941;SDS011;49042;47.318;19.874;2023-05-06T02:25:43;13.82;;;8.20;;
62941;SDS011;49042;47.318;19.874;2023-05-06T02:28:46;20.85;;;9.27;;
62941;SDS011;49042;47.318;19.874;2023-05-06T02:31:50;18.23;;;9.50;;
62941;SDS011;49042;47.318;19.874;2023-05-06T02:34:53;18.37;;;11.85;;
62941;SDS011;49042;47.318;19.874;2023-05-06T02:37:56;19.95;;;13.23;;
62941;SDS011;49042;47.318;19.874;2023-05-06T02:40:58;30.33;;;13.15;;
62941;SDS011;49042;47.318;19.874;2023-05-06T02:44:00;20.05;;;13.15;;
62941;SDS011;49042;47.318;19.874;2023-05-06T02:47:02;20.83;;;11.25;;
62941;SDS011;49042;47.318;19.874;2023-05-06T02:50:04;20.65;;;10.65;;
62941;SDS011;49042;47.318;19.874;2023-05-06T02:53:06;19.15;;;11.35;;
62941;SDS011;49042;47.318;19.874;2023-05-06T02:56:09;18.30;;;9.95;;
62941;SDS011;49042;47.318;19.874;2023-05-06T02:59:10;26.77;;;10.70;;
62941;SDS011;49042;47.318;19.874;2023-05-06T03:02:12;18.17;;;10.88;;
62941;SDS011;49042;47.318;19.874;2023-05-06T03:05:14;17.80;;;10.05;;
62941;SDS011;49042;47.318;19.874;2023-05-06T03:08:16;16.83;;;10.68;;
62941;SDS011;49042;47.318;19.874;2023-05-06T03:11:17;17.48;;;10.25;;
62941;SDS011;49042;47.318;19.874;2023-05-06T03:14:20;15.40;;;10.13;;
62941;SDS011;49042;47.318;19.874;2023-05-06T03:17:23;14.00;;;9.82;;
62941;SDS011;49042;47.318;19.874;2023-05-06T03:20:25;23.45;;;10.38;;
62941;SDS011;49042;47.318;19.874;2023-05-06T03:23:29;16.85;;;10.35;;
62941;SDS011;49042;47.318;19.874;2023-05-06T03:26:32;13.38;;;8.40;;
62941;SDS011;49042;47.318;19.874;2023-05-06T03:29:33;14.30;;;9.43;;
62941;SDS011;49042;47.318;19.874;2023-05-06T03:32:36;14.73;;;9.20;;
62941;SDS011;49042;47.318;19.874;2023-05-06T03:35:38;15.15;;;9.30;;
62941;SDS011;49042;47.318;19.874;2023-05-06T03:38:41;15.07;;;9.25;;
62941;SDS011;49042;47.318;19.874;2023-05-06T03:41:43;15.75;;;10.52;;
62941;SDS011;49042;47.318;19.874;2023-05-06T03:44:46;14.60;;;9.98;;
62941;SDS011;49042;47.318;19.874;2023-05-06T03:47:48;19.62;;;9.85;;
62941;SDS011;49042;47.318;19.874;2023-05-06T03:50:49;22.20;;;9.95;;
62941;SDS011;49042;47.318;19.874;2023-05-06T03:53:51;17.33;;;9.93;;
62941;SDS011;49042;47.318;19.874;2023-05-06T03:56:55;17.83;;;10.32;;
62941;SDS011;49042;47.318;19.874;2023-05-06T03:59:56;15.38;;;10.35;;
62941;SDS011;49042;47.318;19.874;2023-05-06T04:02:58;16.30;;;10.40;;
62941;SDS011;49042;47.318;19.874;2023-05-06T04:06:00;14.02;;;10.02;;
62941;SDS011;49042;47.318;19.874;2023-05-06T04:09:02;27.77;;;10.43;;
62941;SDS011;49042;47.318;19.874;2023-05-06T04:12:06;16.12;;;10.40;;
62941;SDS011;49042;47.318;19.874;2023-05-06T04:15:08;15.20;;;9.77;;
62941;SDS011;49042;47.318;19.874;2023-05-06T04:18:11;20.05;;;10.27;;
62941;SDS011;49042;47.318;19.874;2023-05-06T04:21:19;16.15;;;10.20;;
62941;SDS011;49042;47.318;19.874;2023-05-06T04:24:20;12.93;;;10.00;;
62941;SDS011;49042;47.318;19.874;2023-05-06T04:27:23;18.08;;;10.88;;
62941;SDS011;49042;47.318;19.874;2023-05-06T04:30:26;15.40;;;9.70;;
62941;SDS011;49042;47.318;19.874;2023-05-06T04:33:28;18.20;;;10.27;;
62941;SDS011;49042;47.318;19.874;2023-05-06T04:36:30;14.95;;;10.07;;
62941;SDS011;49042;47.318;19.874;2023-05-06T04:39:32;15.73;;;9.43;;
62941;SDS011;49042;47.318;19.874;2023-05-06T04:42:34;13.55;;;9.52;;
62941;SDS011;49042;47.318;19.874;2023-05-06T04:45:36;24.80;;;10.05;;
62941;SDS011;49042;47.318;19.874;2023-05-06T04:48:38;13.95;;;9.50;;
62941;SDS011;49042;47.318;19.874;2023-05-06T04:51:40;13.20;;;9.02;;
62941;SDS011;49042;47.318;19.874;2023-05-06T04:54:41;18.27;;;9.88;;
62941;SDS011;49042;47.318;19.874;2023-05-06T04:57:45;13.62;;;9.77;;
62941;SDS011;49042;47.318;19.874;2023-05-06T05:00:47;13.55;;;9.63;;
62941;SDS011;49042;47.318;19.874;2023-05-06T05:03:49;18.70;;;9.52;;
62941;SDS011;49042;47.318;19.874;2023-05-06T05:06:51;17.25;;;9.27;;
62941;SDS011;49042;47.318;19.874;2023-05-06T05:09:55;17.77;;;9.43;;
62941;SDS011;49042;47.318;19.874;2023-05-06T05:12:56;14.60;;;9.40;;
62941;SDS011;49042;47.318;19.874;2023-05-06T05:15:58;14.73;;;9.15;;
62941;SDS011;49042;47.318;19.874;2023-05-06T05:19:01;16.15;;;9.25;;
62941;SDS011;49042;47.318;19.874;2023-05-06T05:22:04;13.62;;;8.77;;
62941;SDS011;49042;47.318;19.874;2023-05-06T05:25:06;13.88;;;8.18;;
62941;SDS011;49042;47.318;19.874;2023-05-06T05:28:09;14.15;;;8.35;;
62941;SDS011;49042;47.318;19.874;2023-05-06T05:31:10;11.85;;;8.93;;
62941;SDS011;49042;47.318;19.874;2023-05-06T05:34:12;12.73;;;9.23;;
62941;SDS011;49042;47.318;19.874;2023-05-06T05:37:14;12.50;;;8.95;;
62941;SDS011;49042;47.318;19.874;2023-05-06T05:40:15;15.75;;;8.80;;
62941;SDS011;49042;47.318;19.874;2023-05-06T05:43:17;12.77;;;9.07;;
62941;SDS011;49042;47.318;19.874;2023-05-06T05:46:21;13.10;;;8.82;;
62941;SDS011;49042;47.318;19.874;2023-05-06T05:49:23;14.00;;;7.82;;
62941;SDS011;49042;47.318;19.874;2023-05-06T05:52:25;16.95;;;7.75;;
62941;SDS011;49042;47.318;19.874;2023-05-06T05:55:27;10.07;;;7.57;;
62941;SDS011;49042;47.318;19.874;2023-05-06T05:58:29;20.95;;;7.45;;
62941;SDS011;49042;47.318;19.874;2023-05-06T06:01:31;12.60;;;7.40;;
62941;SDS011;49042;47.318;19.874;2023-05-06T06:04:33;10.52;;;7.47;;
62941;SDS011;49042;47.318;19.874;2023-05-06T06:07:35;12.68;;;7.45;;
62941;SDS011;49042;47.318;19.874;2023-05-06T06:10:37;12.98;;;6.37;;
62941;SDS011;49042;47.318;19.874;2023-05-06T06:13:38;9.98;;;6.93;;
62941;SDS011;49042;47.318;19.874;2023-05-06T06:16:40;9.02;;;5.95;;
62941;SDS011;49042;47.318;19.874;2023-05-06T06:19:45;9.20;;;6.55;;
62941;SDS011;49042;47.318;19.874;2023-05-06T06:22:47;7.78;;;6.05;;
62941;SDS011;49042;47.318;19.874;2023-05-06T06:25:49;11.80;;;6.10;;
62941;SDS011;49042;47.318;19.874;2023-05-06T06:28:50;12.27;;;7.03;;
62941;SDS011;49042;47.318;19.874;2023-05-06T06:31:52;11.05;;;6.50;;
62941;SDS011;49042;47.318;19.874;2023-05-06T06:34:58;13.57;;;6.30;;
62941;SDS011;49042;47.318;19.874;2023-05-06T06:38:00;8.90;;;5.95;;
62941;SDS011;49042;47.318;19.874;2023-05-06T06:41:03;7.75;;;5.95;;
62941;SDS011;49042;47.318;19.874;2023-05-06T06:44:05;14.48;;;6.97;;
62941;SDS011;49042;47.318;19.874;2023-05-06T06:47:06;9.48;;;6.10;;
62941;SDS011;49042;47.318;19.874;2023-05-06T06:50:08;15.20;;;5.45;;
62941;SDS011;49042;47.318;19.874;2023-05-06T06:53:10;9.32;;;5.90;;
62941;SDS011;49042;47.318;19.874;2023-05-06T06:56:12;12.43;;;7.32;;
62941;SDS011;49042;47.318;19.874;2023-05-06T06:59:14;10.80;;;6.10;;
62941;SDS011;49042;47.318;19.874;2023-05-06T07:02:16;13.60;;;5.55;;
62941;SDS011;49042;47.318;19.874;2023-05-06T07:05:17;13.65;;;5.53;;
62941;SDS011;49042;47.318;19.874;2023-05-06T07:08:19;11.23;;;5.05;;
62941;SDS011;49042;47.318;19.874;2023-05-06T07:11:22;8.02;;;5.15;;
62941;SDS011;49042;47.318;19.874;2023-05-06T07:14:24;9.90;;;5.55;;
62941;SDS011;49042;47.318;19.874;2023-05-06T07:17:26;11.43;;;6.22;;
62941;SDS011;49042;47.318;19.874;2023-05-06T07:20:28;10.13;;;4.97;;
62941;SDS011;49042;47.318;19.874;2023-05-06T07:23:31;13.85;;;4.22;;
62941;SDS011;49042;47.318;19.874;2023-05-06T07:26:36;8.63;;;4.50;;
62941;SDS011;49042;47.318;19.874;2023-05-06T07:29:38;7.47;;;4.05;;
62941;SDS011;49042;47.318;19.874;2023-05-06T07:32:39;9.38;;;4.93;;
62941;SDS011;49042;47.318;19.874;2023-05-06T07:35:41;7.68;;;4.20;;
62941;SDS011;49042;47.318;19.874;2023-05-06T07:38:43;5.65;;;4.60;;
62941;SDS011;49042;47.318;19.874;2023-05-06T07:41:46;18.20;;;4.60;;
62941;SDS011;49042;47.318;19.874;2023-05-06T07:44:48;15.07;;;5.15;;
62941;SDS011;49042;47.318;19.874;2023-05-06T07:47:55;16.75;;;3.95;;
62941;SDS011;49042;47.318;19.874;2023-05-06T07:50:59;11.70;;;4.35;;
62941;SDS011;49042;47.318;19.874;2023-05-06T07:54:02;10.88;;;3.80;;
62941;SDS011;49042;47.318;19.874;2023-05-06T07:57:05;4.35;;;3.33;;
62941;SDS011;49042;47.318;19.874;2023-05-06T08:00:08;5.22;;;3.33;;
62941;SDS011;49042;47.318;19.874;2023-05-06T08:03:10;6.15;;;4.18;;
62941;SDS011;49042;47.318;19.874;2023-05-06T08:06:12;5.85;;;3.70;;
62941;SDS011;49042;47.318;19.874;2023-05-06T08:09:14;14.40;;;3.78;;
62941;SDS011;49042;47.318;19.874;2023-05-06T08:12:23;4.87;;;3.53;;
62941;SDS011;49042;47.318;19.874;2023-05-06T08:15:25;5.43;;;3.97;;
62941;SDS011;49042;47.318;19.874;2023-05-06T08:18:27;17.95;;;4.00;;
62941;SDS011;49042;47.318;19.874;2023-05-06T08:21:28;9.02;;;3.10;;
62941;SDS011;49042;47.318;19.874;2023-05-06T08:24:31;7.32;;;3.12;;
62941;SDS011;49042;47.318;19.874;2023-05-06T08:27:32;5.37;;;3.20;;
62941;SDS011;49042;47.318;19.874;2023-05-06T08:30:37;5.72;;;2.90;;
62941;SDS011;49042;47.318;19.874;2023-05-06T08:33:38;5.90;;;3.03;;
62941;SDS011;49042;47.318;19.874;2023-05-06T08:36:40;16.73;;;3.25;;
62941;SDS011;49042;47.318;19.874;2023-05-06T08:39:42;6.43;;;3.22;;
62941;SDS011;49042;47.318;19.874;2023-05-06T08:42:45;9.75;;;3.03;;
62941;SDS011;49042;47.318;19.874;2023-05-06T08:45:48;6.47;;;2.50;;
62941;SDS011;49042;47.318;19.874;2023-05-06T08:48:50;4.18;;;2.60;;
62941;SDS011;49042;47.318;19.874;2023-05-06T08:51:53;11.68;;;2.83;;
62941;SDS011;49042;47.318;19.874;2023-05-06T08:54:55;7.12;;;2.95;;
62941;SDS011;49042;47.318;19.874;2023-05-06T08:58:02;3.53;;;2.80;;
62941;SDS011;49042;47.318;19.874;2023-05-06T09:01:07;6.82;;;2.60;;
62941;SDS011;49042;47.318;19.874;2023-05-06T09:04:09;4.97;;;2.70;;
62941;SDS011;49042;47.318;19.874;2023-05-06T09:07:12;4.70;;;2.70;;
62941;SDS011;49042;47.318;19.874;2023-05-06T09:10:13;3.35;;;2.53;;
62941;SDS011;49042;47.318;19.874;2023-05-06T09:13:16;6.00;;;3.03;;
62941;SDS011;49042;47.318;19.874;2023-05-06T09:16:29;5.05;;;2.62;;
62941;SDS011;49042;47.318;19.874;2023-05-06T09:19:31;4.28;;;2.80;;
62941;SDS011;49042;47.318;19.874;2023-05-06T09:22:32;5.62;;;2.70;;
62941;SDS011;49042;47.318;19.874;2023-05-06T09:25:34;4.53;;;2.37;;
62941;SDS011;49042;47.318;19.874;2023-05-06T09:28:37;4.15;;;2.28;;
62941;SDS011;49042;47.318;19.874;2023-05-06T09:31:43;3.22;;;2.40;;
62941;SDS011;49042;47.318;19.874;2023-05-06T09:34:47;11.20;;;2.67;;
62941;SDS011;49042;47.318;19.874;2023-05-06T09:37:50;4.20;;;2.67;;
62941;SDS011;49042;47.318;19.874;2023-05-06T09:40:52;2.97;;;2.50;;
62941;SDS011;49042;47.318;19.874;2023-05-06T09:43:54;10.98;;;2.80;;
62941;SDS011;49042;47.318;19.874;2023-05-06T09:46:56;6.90;;;3.22;;
62941;SDS011;49042;47.318;19.874;2023-05-06T09:49:59;10.88;;;3.08;;
62941;SDS011;49042;47.318;19.874;2023-05-06T09:53:01;8.40;;;2.85;;
62941;SDS011;49042;47.318;19.874;2023-05-06T09:56:05;4.07;;;2.80;;
62941;SDS011;49042;47.318;19.874;2023-05-06T09:59:08;3.00;;;2.67;;
62941;SDS011;49042;47.318;19.874;2023-05-06T10:02:11;6.00;;;3.08;;
62941;SDS011;49042;47.318;19.874;2023-05-06T10:05:16;4.10;;;3.15;;
62941;SDS011;49042;47.318;19.874;2023-05-06T10:08:19;6.85;;;3.12;;
62941;SDS011;49042;47.318;19.874;2023-05-06T10:11:23;3.58;;;2.47;;
62941;SDS011;49042;47.318;19.874;2023-05-06T10:14:27;5.90;;;2.58;;
62941;SDS011;49042;47.318;19.874;2023-05-06T10:17:30;5.50;;;2.70;;
62941;SDS011;49042;47.318;19.874;2023-05-06T10:20:33;7.03;;;2.30;;
62941;SDS011;49042;47.318;19.874;2023-05-06T10:23:37;6.50;;;2.40;;
62941;SDS011;49042;47.318;19.874;2023-05-06T10:26:49;2.83;;;2.20;;
62941;SDS011;49042;47.318;19.874;2023-05-06T10:29:54;7.10;;;2.30;;
62941;SDS011;49042;47.318;19.874;2023-05-06T10:33:09;10.93;;;2.70;;
62941;SDS011;49042;47.318;19.874;2023-05-06T10:36:17;7.03;;;2.30;;
62941;SDS011;49042;47.318;19.874;2023-05-06T10:39:20;7.18;;;2.45;;
62941;SDS011;49042;47.318;19.874;2023-05-06T10:42:26;4.75;;;2.30;;
62941;SDS011;49042;47.318;19.874;2023-05-06T10:45:31;6.53;;;2.60;;
62941;SDS011;49042;47.318;19.874;2023-05-06T10:52:14;6.70;;;2.22;;
62941;SDS011;49042;47.318;19.874;2023-05-06T10:55:26;14.60;;;3.05;;
62941;SDS011;49042;47.318;19.874;2023-05-06T10:58:28;6.20;;;2.58;;
62941;SDS011;49042;47.318;19.874;2023-05-06T11:01:39;4.15;;;2.60;;
62941;SDS011;49042;47.318;19.874;2023-05-06T11:04:48;5.35;;;2.40;;
62941;SDS011;49042;47.318;19.874;2023-05-06T11:07:52;3.42;;;2.55;;
62941;SDS011;49042;47.318;19.874;2023-05-06T11:14:48;5.78;;;2.78;;
62941;SDS011;49042;47.318;19.874;2023-05-06T11:17:50;10.23;;;2.40;;
62941;SDS011;49042;47.318;19.874;2023-05-06T11:27:02;3.95;;;2.30;;
62941;SDS011;49042;47.318;19.874;2023-05-06T11:30:06;4.40;;;2.87;;
62941;SDS011;49042;47.318;19.874;2023-05-06T11:33:17;7.43;;;2.65;;
62941;SDS011;49042;47.318;19.874;2023-05-06T11:36:20;5.53;;;2.62;;
62941;SDS011;49042;47.318;19.874;2023-05-06T11:39:22;3.80;;;2.60;;
62941;SDS011;49042;47.318;19.874;2023-05-06T11:42:24;4.60;;;2.65;;
62941;SDS011;49042;47.318;19.874;2023-05-06T11:45:38;4.70;;;2.30;;
62941;SDS011;49042;47.318;19.874;2023-05-06T11:48:44;4.07;;;2.50;;
62941;SDS011;49042;47.318;19.874;2023-05-06T11:51:46;4.22;;;2.62;;
62941;SDS011;49042;47.318;19.874;2023-05-06T11:54:50;3.78;;;2.42;;
62941;SDS011;49042;47.318;19.874;2023-05-06T11:57:53;5.95;;;3.00;;
62941;SDS011;49042;47.318;19.874;2023-05-06T12:00:56;4.97;;;2.37;;
62941;SDS011;49042;47.318;19.874;2023-05-06T12:04:00;5.65;;;2.03;;
62941;SDS011;49042;47.318;19.874;2023-05-06T12:07:03;3.53;;;2.17;;
62941;SDS011;49042;47.318;19.874;2023-05-06T12:10:06;5.35;;;2.30;;
62941;SDS011;49042;47.318;19.874;2023-05-06T12:13:09;8.23;;;2.60;;
62941;SDS011;49042;47.318;19.874;2023-05-06T12:16:11;8.13;;;2.37;;
62941;SDS011;49042;47.318;19.874;2023-05-06T12:19:16;9.40;;;2.50;;
62941;SDS011;49042;47.318;19.874;2023-05-06T12:22:20;5.03;;;2.28;;
62941;SDS011;49042;47.318;19.874;2023-05-06T12:25:23;4.00;;;2.12;;
62941;SDS011;49042;47.318;19.874;2023-05-06T12:28:24;4.40;;;2.15;;
62941;SDS011;49042;47.318;19.874;2023-05-06T12:31:27;4.45;;;1.77;;
62941;SDS011;49042;47.318;19.874;2023-05-06T12:34:35;2.30;;;1.80;;
62941;SDS011;49042;47.318;19.874;2023-05-06T12:37:38;9.63;;;2.25;;
62941;SDS011;49042;47.318;19.874;2023-05-06T12:40:41;10.00;;;2.17;;
62941;SDS011;49042;47.318;19.874;2023-05-06T12:43:43;3.20;;;2.00;;
62941;SDS011;49042;47.318;19.874;2023-05-06T12:46:49;4.40;;;1.62;;
62941;SDS011;49042;47.318;19.874;2023-05-06T12:49:56;7.25;;;2.08;;
62941;SDS011;49042;47.318;19.874;2023-05-06T12:52:59;3.95;;;2.10;;
62941;SDS011;49042;47.318;19.874;2023-05-06T12:56:02;2.92;;;1.77;;
62941;SDS011;49042;47.318;19.874;2023-05-06T12:59:04;2.75;;;2.10;;
62941;SDS011;49042;47.318;19.874;2023-05-06T13:02:06;3.80;;;2.22;;
62941;SDS011;49042;47.318;19.874;2023-05-06T13:05:08;13.43;;;2.50;;
62941;SDS011;49042;47.318;19.874;2023-05-06T13:08:10;5.53;;;2.22;;
62941;SDS011;49042;47.318;19.874;2023-05-06T13:11:12;4.68;;;2.40;;
62941;SDS011;49042;47.318;19.874;2023-05-06T13:14:14;5.60;;;2.40;;
62941;SDS011;49042;47.318;19.874;2023-05-06T13:17:16;2.75;;;2.10;;
62941;SDS011;49042;47.318;19.874;2023-05-06T13:20:18;3.58;;;2.20;;
62941;SDS011;49042;47.318;19.874;2023-05-06T13:23:20;2.40;;;2.05;;
62941;SDS011;49042;47.318;19.874;2023-05-06T13:26:22;9.50;;;2.28;;
62941;SDS011;49042;47.318;19.874;2023-05-06T13:29:24;5.70;;;2.12;;
62941;SDS011;49042;47.318;19.874;2023-05-06T13:32:25;5.60;;;2.10;;
62941;SDS011;49042;47.318;19.874;2023-05-06T13:35:27;2.28;;;2.08;;
62941;SDS011;49042;47.318;19.874;2023-05-06T13:38:30;4.60;;;2.33;;
62941;SDS011;49042;47.318;19.874;2023-05-06T13:41:32;4.07;;;2.42;;
62941;SDS011;49042;47.318;19.874;2023-05-06T13:44:34;5.53;;;2.17;;
62941;SDS011;49042;47.318;19.874;2023-05-06T13:47:36;2.95;;;2.00;;
62941;SDS011;49042;47.318;19.874;2023-05-06T13:50:44;3.45;;;2.33;;
62941;SDS011;49042;47.318;19.874;2023-05-06T13:53:47;3.95;;;2.42;;
62941;SDS011;49042;47.318;19.874;2023-05-06T13:56:49;5.00;;;2.35;;
62941;SDS011;49042;47.318;19.874;2023-05-06T13:59:52;5.18;;;2.60;;
62941;SDS011;49042;47.318;19.874;2023-05-06T14:02:53;5.43;;;2.30;;
62941;SDS011;49042;47.318;19.874;2023-05-06T14:05:55;21.92;;;2.87;;
62941;SDS011;49042;47.318;19.874;2023-05-06T14:08:58;4.07;;;2.33;;
62941;SDS011;49042;47.318;19.874;2023-05-06T14:12:00;3.70;;;2.35;;
62941;SDS011;49042;47.318;19.874;2023-05-06T14:15:06;8.90;;;2.72;;
62941;SDS011;49042;47.318;19.874;2023-05-06T14:18:09;6.60;;;2.25;;
62941;SDS011;49042;47.318;19.874;2023-05-06T14:21:11;4.93;;;2.50;;
62941;SDS011;49042;47.318;19.874;2023-05-06T14:24:12;3.53;;;2.22;;
62941;SDS011;49042;47.318;19.874;2023-05-06T14:27:14;4.87;;;2.60;;
62941;SDS011;49042;47.318;19.874;2023-05-06T14:30:16;3.87;;;2.33;;
62941;SDS011;49042;47.318;19.874;2023-05-06T14:33:18;3.87;;;2.10;;
62941;SDS011;49042;47.318;19.874;2023-05-06T14:36:20;10.80;;;2.85;;
62941;SDS011;49042;47.318;19.874;2023-05-06T14:39:22;3.28;;;2.47;;
62941;SDS011;49042;47.318;19.874;2023-05-06T14:42:24;4.60;;;2.22;;
62941;SDS011;49042;47.318;19.874;2023-05-06T14:45:26;8.82;;;2.42;;
62941;SDS011;49042;47.318;19.874;2023-05-06T14:48:28;4.40;;;2.47;;
62941;SDS011;49042;47.318;19.874;2023-05-06T14:51:29;8.88;;;2.62;;
62941;SDS011;49042;47.318;19.874;2023-05-06T14:54:32;3.08;;;2.60;;
62941;SDS011;49042;47.318;19.874;2023-05-06T14:57:34;5.55;;;2.60;;
62941;SDS011;49042;47.318;19.874;2023-05-06T15:00:36;5.70;;;2.40;;
62941;SDS011;49042;47.318;19.874;2023-05-06T15:03:38;3.58;;;2.40;;
62941;SDS011;49042;47.318;19.874;2023-05-06T15:06:40;4.55;;;2.50;;
62941;SDS011;49042;47.318;19.874;2023-05-06T15:09:43;6.10;;;2.60;;
62941;SDS011;49042;47.318;19.874;2023-05-06T15:12:48;7.78;;;2.72;;
62941;SDS011;49042;47.318;19.874;2023-05-06T15:15:52;3.20;;;2.65;;
62941;SDS011;49042;47.318;19.874;2023-05-06T15:18:56;4.70;;;2.90;;
62941;SDS011;49042;47.318;19.874;2023-05-06T15:22:00;5.60;;;2.58;;
62941;SDS011;49042;47.318;19.874;2023-05-06T15:25:02;5.90;;;2.80;;
62941;SDS011;49042;47.318;19.874;2023-05-06T15:28:06;12.37;;;3.90;;
62941;SDS011;49042;47.318;19.874;2023-05-06T15:31:08;12.60;;;3.53;;
62941;SDS011;49042;47.318;19.874;2023-05-06T15:34:10;5.47;;;3.17;;
62941;SDS011;49042;47.318;19.874;2023-05-06T15:37:12;12.88;;;4.35;;
62941;SDS011;49042;47.318;19.874;2023-05-06T15:40:16;9.95;;;3.65;;
62941;SDS011;49042;47.318;19.874;2023-05-06T15:43:18;15.10;;;5.85;;
62941;SDS011;49042;47.318;19.874;2023-05-06T15:46:24;8.77;;;5.37;;
62941;SDS011;49042;47.318;19.874;2023-05-06T15:49:31;6.07;;;4.60;;
62941;SDS011;49042;47.318;19.874;2023-05-06T15:52:54;8.75;;;4.25;;
62941;SDS011;49042;47.318;19.874;2023-05-06T15:55:56;8.63;;;4.53;;
62941;SDS011;49042;47.318;19.874;2023-05-06T15:59:13;9.40;;;4.45;;
62941;SDS011;49042;47.318;19.874;2023-05-06T16:02:16;8.68;;;4.65;;
62941;SDS011;49042;47.318;19.874;2023-05-06T16:05:21;7.43;;;4.37;;
62941;SDS011;49042;47.318;19.874;2023-05-06T16:08:23;8.88;;;4.15;;
62941;SDS011;49042;47.318;19.874;2023-05-06T16:11:25;9.45;;;4.32;;
62941;SDS011;49042;47.318;19.874;2023-05-06T16:14:29;5.55;;;4.05;;
62941;SDS011;49042;47.318;19.874;2023-05-06T16:17:34;6.03;;;4.10;;
62941;SDS011;49042;47.318;19.874;2023-05-06T16:20:39;6.68;;;3.83;;
62941;SDS011;49042;47.318;19.874;2023-05-06T16:23:42;5.62;;;4.00;;
62941;SDS011;49042;47.318;19.874;2023-05-06T16:26:44;5.00;;;3.72;;
62941;SDS011;49042;47.318;19.874;2023-05-06T16:29:47;6.70;;;3.87;;
62941;SDS011;49042;47.318;19.874;2023-05-06T16:32:48;5.55;;;4.25;;
62941;SDS011;49042;47.318;19.874;2023-05-06T16:35:50;11.75;;;4.75;;
62941;SDS011;49042;47.318;19.874;2023-05-06T16:38:52;9.05;;;6.45;;
62941;SDS011;49042;47.318;19.874;2023-05-06T16:41:55;19.67;;;8.15;;
62941;SDS011;49042;47.318;19.874;2023-05-06T16:44:56;15.00;;;7.03;;
62941;SDS011;49042;47.318;19.874;2023-05-06T16:47:58;11.43;;;5.60;;
62941;SDS011;49042;47.318;19.874;2023-05-06T16:51:05;6.93;;;4.82;;
62941;SDS011;49042;47.318;19.874;2023-05-06T16:54:09;19.20;;;5.95;;
62941;SDS011;49042;47.318;19.874;2023-05-06T16:57:12;10.88;;;5.07;;
62941;SDS011;49042;47.318;19.874;2023-05-06T17:00:14;13.30;;;5.35;;
62941;SDS011;49042;47.318;19.874;2023-05-06T17:03:18;8.55;;;4.93;;
62941;SDS011;49042;47.318;19.874;2023-05-06T17:06:21;11.38;;;4.45;;
62941;SDS011;49042;47.318;19.874;2023-05-06T17:09:25;11.52;;;4.53;;
62941;SDS011;49042;47.318;19.874;2023-05-06T17:12:26;11.05;;;4.45;;
62941;SDS011;49042;47.318;19.874;2023-05-06T17:15:29;5.35;;;4.25;;
62941;SDS011;49042;47.318;19.874;2023-05-06T17:18:31;9.60;;;4.75;;
62941;SDS011;49042;47.318;19.874;2023-05-06T17:24:42;9.55;;;5.20;;
62941;SDS011;49042;47.318;19.874;2023-05-06T17:27:45;10.30;;;4.60;;
62941;SDS011;49042;47.318;19.874;2023-05-06T17:30:47;7.75;;;4.12;;
62941;SDS011;49042;47.318;19.874;2023-05-06T17:33:48;7.80;;;4.25;;
62941;SDS011;49042;47.318;19.874;2023-05-06T17:36:51;8.18;;;4.75;;
62941;SDS011;49042;47.318;19.874;2023-05-06T17:39:53;10.98;;;4.60;;
62941;SDS011;49042;47.318;19.874;2023-05-06T17:42:55;9.65;;;4.47;;
62941;SDS011;49042;47.318;19.874;2023-05-06T17:45:56;6.82;;;4.35;;
62941;SDS011;49042;47.318;19.874;2023-05-06T17:48:58;9.93;;;4.55;;
62941;SDS011;49042;47.318;19.874;2023-05-06T17:52:00;8.88;;;5.65;;
62941;SDS011;49042;47.318;19.874;2023-05-06T17:55:02;8.50;;;5.00;;
62941;SDS011;49042;47.318;19.874;2023-05-06T17:58:16;6.97;;;5.45;;
62941;SDS011;49042;47.318;19.874;2023-05-06T18:01:18;12.73;;;7.37;;
62941;SDS011;49042;47.318;19.874;2023-05-06T18:04:20;10.63;;;6.60;;
62941;SDS011;49042;47.318;19.874;2023-05-06T18:07:22;15.63;;;7.43;;
62941;SDS011;49042;47.318;19.874;2023-05-06T18:10:23;9.65;;;6.97;;
62941;SDS011;49042;47.318;19.874;2023-05-06T18:13:26;10.23;;;7.55;;
62941;SDS011;49042;47.318;19.874;2023-05-06T18:16:28;16.45;;;8.02;;
62941;SDS011;49042;47.318;19.874;2023-05-06T18:19:29;28.05;;;12.73;;